sensor_id;sensor_type;location;lat;lon;timestamp;pressure;altitude;pressure_sealevel;temperature;humidity
13732;BME280;6937;56.096;12.664;2023-05-02T00:01:52;100553.38;;;11.09;100.00
13732;BME280;6937;56.096;12.664;2023-05-02T00:04:18;100544.72;;;11.06;100.00
13732;BME280;6937;56.096;12.664;2023-05-02T00:06:43;100544.09;;;11.02;100.00
13732;BME280;6937;56.096;12.664;2023-05-02T00:09:11;100543.28;;;11.02;100.00
13732;BME280;6937;56.096;12.664;2023-05-02T00:11:36;100535.34;;;11.00;100.00
13732;BME280;6937;56.096;12.664;2023-05-02T00:14:01;100525.97;;;10.95;100.00
13732;BME280;6937;56.096;12.664;2023-05-02T00:16:27;100514.56;;;10.93;100.00
13732;BME280;6937;56.096;12.664;2023-05-02T00:18:52;100506.88;;;10.88;100.00
13732;BME280;6937;56.096;12.664;2023-05-02T00:21:17;100523.69;;;10.90;100.00
13732;BME280;6937;56.096;12.664;2023-05-02T00:23:43;100525.84;;;10.85;100.00
13732;BME280;6937;56.096;12.664;2023-05-02T00:26:08;100523.19;;;10.85;100.00
13732;BME280;6937;56.096;12.664;2023-05-02T00:28:34;100516.34;;;10.81;100.00
13732;BME280;6937;56.096;12.664;2023-05-02T00:30:59;100513.19;;;10.76;100.00
13732;BME280;6937;56.096;12.664;2023-05-02T00:33:25;100531.28;;;10.73;100.00
13732;BME280;6937;56.096;12.664;2023-05-02T00:35:50;100525.78;;;10.63;100.00
13732;BME280;6937;56.096;12.664;2023-05-02T00:38:16;100523.13;;;10.63;100.00
13732;BME280;6937;56.096;12.664;2023-05-02T00:40:46;100531.97;;;10.52;100.00
13732;BME280;6937;56.096;12.664;2023-05-02T00:43:12;100542.03;;;10.25;100.00
13732;BME280;6937;56.096;12.664;2023-05-02T00:45:38;100534.00;;;10.01;100.00
13732;BME280;6937;56.096;12.664;2023-05-02T00:48:07;100545.47;;;9.91;100.00
13732;BME280;6937;56.096;12.664;2023-05-02T00:50:36;100553.78;;;9.86;100.00
13732;BME280;6937;56.096;12.664;2023-05-02T00:53:03;100557.88;;;9.79;100.00
13732;BME280;6937;56.096;12.664;2023-05-02T00:55:28;100570.09;;;9.70;100.00
13732;BME280;6937;56.096;12.664;2023-05-02T00:57:55;100575.97;;;9.63;100.00
13732;BME280;6937;56.096;12.664;2023-05-02T01:00:22;100579.50;;;9.51;100.00
13732;BME280;6937;56.096;12.664;2023-05-02T01:02:58;100585.47;;;9.42;100.00
13732;BME280;6937;56.096;12.664;2023-05-02T01:05:38;100581.75;;;9.32;100.00
13732;BME280;6937;56.096;12.664;2023-05-02T01:08:09;100580.88;;;9.18;100.00
13732;BME280;6937;56.096;12.664;2023-05-02T01:10:48;100583.13;;;9.12;100.00
13732;BME280;6937;56.096;12.664;2023-05-02T01:13:27;100590.72;;;9.05;100.00
13732;BME280;6937;56.096;12.664;2023-05-02T01:15:55;100587.63;;;8.99;100.00
13732;BME280;6937;56.096;12.664;2023-05-02T01:18:26;100577.25;;;8.94;100.00
13732;BME280;6937;56.096;12.664;2023-05-02T01:20:59;100589.19;;;8.89;100.00
13732;BME280;6937;56.096;12.664;2023-05-02T01:29:07;100601.00;;;8.72;100.00
13732;BME280;6937;56.096;12.664;2023-05-02T01:31:41;100611.75;;;8.70;100.00
13732;BME280;6937;56.096;12.664;2023-05-02T01:34:09;100605.03;;;8.65;100.00
13732;BME280;6937;56.096;12.664;2023-05-02T01:36:46;100607.34;;;8.57;100.00
13732;BME280;6937;56.096;12.664;2023-05-02T01:39:14;100630.69;;;8.53;100.00
13732;BME280;6937;56.096;12.664;2023-05-02T01:41:42;100606.25;;;8.47;100.00
13732;BME280;6937;56.096;12.664;2023-05-02T01:44:08;100613.91;;;8.39;100.00
13732;BME280;6937;56.096;12.664;2023-05-02T01:46:37;100619.50;;;8.34;100.00
13732;BME280;6937;56.096;12.664;2023-05-02T01:49:06;100625.06;;;8.31;100.00
13732;BME280;6937;56.096;12.664;2023-05-02T01:51:34;100634.16;;;8.27;100.00
13732;BME280;6937;56.096;12.664;2023-05-02T01:54:05;100623.50;;;8.27;100.00
13732;BME280;6937;56.096;12.664;2023-05-02T01:56:34;100643.22;;;8.24;100.00
13732;BME280;6937;56.096;12.664;2023-05-02T01:59:02;100624.41;;;8.13;100.00
13732;BME280;6937;56.096;12.664;2023-05-02T02:01:29;100643.53;;;8.06;100.00
13732;BME280;6937;56.096;12.664;2023-05-02T02:03:56;100634.13;;;8.00;100.00
13732;BME280;6937;56.096;12.664;2023-05-02T02:06:23;100651.03;;;7.99;100.00
13732;BME280;6937;56.096;12.664;2023-05-02T02:08:49;100651.22;;;7.96;100.00
13732;BME280;6937;56.096;12.664;2023-05-02T02:11:18;100656.84;;;7.92;100.00
13732;BME280;6937;56.096;12.664;2023-05-02T02:13:54;100655.97;;;7.91;100.00
13732;BME280;6937;56.096;12.664;2023-05-02T02:16:24;100660.75;;;7.86;100.00
13732;BME280;6937;56.096;12.664;2023-05-02T02:18:55;100663.28;;;7.88;100.00
13732;BME280;6937;56.096;12.664;2023-05-02T02:21:22;100668.94;;;7.83;100.00
13732;BME280;6937;56.096;12.664;2023-05-02T02:23:53;100669.88;;;7.82;100.00
13732;BME280;6937;56.096;12.664;2023-05-02T02:26:20;100657.63;;;7.80;100.00
13732;BME280;6937;56.096;12.664;2023-05-02T02:28:47;100671.75;;;7.80;100.00
13732;BME280;6937;56.096;12.664;2023-05-02T02:31:13;100674.41;;;7.80;100.00
13732;BME280;6937;56.096;12.664;2023-05-02T02:33:38;100681.38;;;7.83;100.00
13732;BME280;6937;56.096;12.664;2023-05-02T02:36:09;100678.50;;;7.86;100.00
13732;BME280;6937;56.096;12.664;2023-05-02T02:38:43;100671.19;;;7.89;100.00
13732;BME280;6937;56.096;12.664;2023-05-02T02:41:13;100679.84;;;7.93;100.00
13732;BME280;6937;56.096;12.664;2023-05-02T02:43:48;100674.91;;;8.01;100.00
13732;BME280;6937;56.096;12.664;2023-05-02T02:49:21;100691.81;;;8.00;100.00
13732;BME280;6937;56.096;12.664;2023-05-02T02:53:04;100694.94;;;7.92;100.00
13732;BME280;6937;56.096;12.664;2023-05-02T02:55:06;100696.38;;;7.84;100.00
13732;BME280;6937;56.096;12.664;2023-05-02T02:57:38;100694.56;;;7.84;100.00
13732;BME280;6937;56.096;12.664;2023-05-02T03:00:20;100703.69;;;7.80;100.00
13732;BME280;6937;56.096;12.664;2023-05-02T03:02:47;100708.34;;;7.76;100.00
13732;BME280;6937;56.096;12.664;2023-05-02T03:05:13;100713.56;;;7.78;100.00
13732;BME280;6937;56.096;12.664;2023-05-02T03:07:39;100716.81;;;7.83;100.00
13732;BME280;6937;56.096;12.664;2023-05-02T03:10:05;100722.03;;;7.85;100.00
13732;BME280;6937;56.096;12.664;2023-05-02T03:12:31;100712.53;;;7.81;100.00
13732;BME280;6937;56.096;12.664;2023-05-02T03:17:57;100717.56;;;7.85;100.00
13732;BME280;6937;56.096;12.664;2023-05-02T03:20:22;100721.66;;;7.91;100.00
13732;BME280;6937;56.096;12.664;2023-05-02T03:22:47;100730.69;;;7.88;100.00
13732;BME280;6937;56.096;12.664;2023-05-02T03:25:13;100717.38;;;7.88;100.00
13732;BME280;6937;56.096;12.664;2023-05-02T03:27:38;100724.50;;;7.88;100.00
13732;BME280;6937;56.096;12.664;2023-05-02T03:30:04;100731.44;;;7.90;100.00
13732;BME280;6937;56.096;12.664;2023-05-02T03:32:29;100748.09;;;7.94;100.00
13732;BME280;6937;56.096;12.664;2023-05-02T03:34:55;100740.75;;;7.97;100.00
13732;BME280;6937;56.096;12.664;2023-05-02T03:37:23;100730.88;;;7.99;100.00
13732;BME280;6937;56.096;12.664;2023-05-02T03:39:48;100748.47;;;8.02;100.00
13732;BME280;6937;56.096;12.664;2023-05-02T03:42:14;100748.47;;;8.02;100.00
13732;BME280;6937;56.096;12.664;2023-05-02T03:44:39;100750.28;;;8.01;100.00
13732;BME280;6937;56.096;12.664;2023-05-02T03:47:05;100754.47;;;8.05;100.00
13732;BME280;6937;56.096;12.664;2023-05-02T03:49:33;100756.63;;;7.99;100.00
13732;BME280;6937;56.096;12.664;2023-05-02T03:51:59;100766.59;;;7.95;100.00
13732;BME280;6937;56.096;12.664;2023-05-02T03:54:25;100774.59;;;7.95;100.00
13732;BME280;6937;56.096;12.664;2023-05-02T03:56:55;100773.91;;;7.92;100.00
13732;BME280;6937;56.096;12.664;2023-05-02T03:59:20;100778.00;;;7.83;100.00
13732;BME280;6937;56.096;12.664;2023-05-02T04:01:49;100792.25;;;7.82;100.00
13732;BME280;6937;56.096;12.664;2023-05-02T04:04:14;100802.22;;;7.78;100.00
13732;BME280;6937;56.096;12.664;2023-05-02T04:06:40;100805.81;;;7.77;100.00
13732;BME280;6937;56.096;12.664;2023-05-02T04:09:06;100806.88;;;7.75;100.00
13732;BME280;6937;56.096;12.664;2023-05-02T04:11:32;100793.47;;;7.76;100.00
13732;BME280;6937;56.096;12.664;2023-05-02T04:13:58;100800.78;;;7.73;100.00
13732;BME280;6937;56.096;12.664;2023-05-02T04:16:24;100807.06;;;7.72;100.00
13732;BME280;6937;56.096;12.664;2023-05-02T04:18:49;100822.16;;;7.71;100.00
13732;BME280;6937;56.096;12.664;2023-05-02T04:21:14;100806.41;;;7.68;100.00
13732;BME280;6937;56.096;12.664;2023-05-02T04:23:40;100829.63;;;7.65;100.00
13732;BME280;6937;56.096;12.664;2023-05-02T04:26:05;100834.38;;;7.60;100.00
13732;BME280;6937;56.096;12.664;2023-05-02T04:28:31;100838.25;;;7.54;100.00
13732;BME280;6937;56.096;12.664;2023-05-02T04:30:56;100850.13;;;7.49;100.00
13732;BME280;6937;56.096;12.664;2023-05-02T04:33:22;100852.78;;;7.49;100.00
13732;BME280;6937;56.096;12.664;2023-05-02T04:35:48;100858.16;;;7.47;100.00
13732;BME280;6937;56.096;12.664;2023-05-02T04:38:14;100881.44;;;7.44;100.00
13732;BME280;6937;56.096;12.664;2023-05-02T04:40:40;100888.47;;;7.45;100.00
13732;BME280;6937;56.096;12.664;2023-05-02T04:43:05;100882.97;;;7.48;100.00
13732;BME280;6937;56.096;12.664;2023-05-02T04:45:33;100903.38;;;7.47;100.00
13732;BME280;6937;56.096;12.664;2023-05-02T04:47:58;100911.28;;;7.49;100.00
13732;BME280;6937;56.096;12.664;2023-05-02T04:50:24;100912.28;;;7.46;100.00
13732;BME280;6937;56.096;12.664;2023-05-02T04:52:52;100926.63;;;7.44;100.00
13732;BME280;6937;56.096;12.664;2023-05-02T04:55:17;100935.53;;;7.43;100.00
13732;BME280;6937;56.096;12.664;2023-05-02T04:57:43;100943.44;;;7.44;100.00
13732;BME280;6937;56.096;12.664;2023-05-02T05:00:08;100941.66;;;7.45;100.00
13732;BME280;6937;56.096;12.664;2023-05-02T05:02:34;100947.81;;;7.45;100.00
13732;BME280;6937;56.096;12.664;2023-05-02T05:05:00;100952.19;;;7.46;100.00
13732;BME280;6937;56.096;12.664;2023-05-02T05:07:26;100971.75;;;7.45;100.00
13732;BME280;6937;56.096;12.664;2023-05-02T05:09:51;100970.03;;;7.44;100.00
13732;BME280;6937;56.096;12.664;2023-05-02T05:12:16;100984.19;;;7.45;100.00
13732;BME280;6937;56.096;12.664;2023-05-02T05:14:42;100995.50;;;7.48;100.00
13732;BME280;6937;56.096;12.664;2023-05-02T05:17:08;101006.31;;;7.45;100.00
13732;BME280;6937;56.096;12.664;2023-05-02T05:19:33;101017.81;;;7.46;100.00
13732;BME280;6937;56.096;12.664;2023-05-02T05:21:59;101013.44;;;7.45;100.00
13732;BME280;6937;56.096;12.664;2023-05-02T05:24:24;101021.06;;;7.51;100.00
13732;BME280;6937;56.096;12.664;2023-05-02T05:26:50;101027.88;;;7.56;100.00
13732;BME280;6937;56.096;12.664;2023-05-02T05:29:15;101029.06;;;7.51;100.00
13732;BME280;6937;56.096;12.664;2023-05-02T05:31:42;101044.75;;;7.55;100.00
13732;BME280;6937;56.096;12.664;2023-05-02T05:34:07;101047.16;;;7.60;100.00
13732;BME280;6937;56.096;12.664;2023-05-02T05:36:33;101053.94;;;7.65;100.00
13732;BME280;6937;56.096;12.664;2023-05-02T05:38:58;101062.69;;;7.67;100.00
13732;BME280;6937;56.096;12.664;2023-05-02T05:41:24;101069.13;;;7.63;100.00
13732;BME280;6937;56.096;12.664;2023-05-02T05:43:49;101082.50;;;7.62;100.00
13732;BME280;6937;56.096;12.664;2023-05-02T05:46:14;101095.56;;;7.66;100.00
13732;BME280;6937;56.096;12.664;2023-05-02T05:48:40;101102.50;;;7.69;100.00
13732;BME280;6937;56.096;12.664;2023-05-02T05:51:05;101105.78;;;7.74;100.00
13732;BME280;6937;56.096;12.664;2023-05-02T05:53:32;101113.50;;;7.78;100.00
13732;BME280;6937;56.096;12.664;2023-05-02T05:55:58;101119.34;;;7.85;100.00
13732;BME280;6937;56.096;12.664;2023-05-02T05:58:23;101132.41;;;7.90;100.00
13732;BME280;6937;56.096;12.664;2023-05-02T06:00:49;101134.19;;;7.89;100.00
13732;BME280;6937;56.096;12.664;2023-05-02T06:03:15;101148.44;;;7.88;100.00
13732;BME280;6937;56.096;12.664;2023-05-02T06:05:41;101165.28;;;7.89;100.00
13732;BME280;6937;56.096;12.664;2023-05-02T06:08:06;101165.63;;;7.83;100.00
13732;BME280;6937;56.096;12.664;2023-05-02T06:10:32;101170.84;;;7.84;100.00
13732;BME280;6937;56.096;12.664;2023-05-02T06:12:57;101176.53;;;7.94;100.00
13732;BME280;6937;56.096;12.664;2023-05-02T06:15:23;101181.75;;;7.95;100.00
13732;BME280;6937;56.096;12.664;2023-05-02T06:17:51;101185.47;;;7.93;100.00
13732;BME280;6937;56.096;12.664;2023-05-02T06:20:17;101195.00;;;7.97;100.00
13732;BME280;6937;56.096;12.664;2023-05-02T06:22:42;101208.13;;;8.00;100.00
13732;BME280;6937;56.096;12.664;2023-05-02T06:25:08;101201.63;;;8.05;100.00
13732;BME280;6937;56.096;12.664;2023-05-02T06:27:33;101218.13;;;8.12;100.00
13732;BME280;6937;56.096;12.664;2023-05-02T06:29:59;101226.44;;;8.06;100.00
13732;BME280;6937;56.096;12.664;2023-05-02T06:32:24;101240.44;;;8.09;100.00
13732;BME280;6937;56.096;12.664;2023-05-02T06:34:50;101243.53;;;8.17;100.00
13732;BME280;6937;56.096;12.664;2023-05-02T06:37:16;101245.56;;;8.30;100.00
13732;BME280;6937;56.096;12.664;2023-05-02T06:39:41;101250.22;;;8.42;100.00
13732;BME280;6937;56.096;12.664;2023-05-02T06:42:06;101255.19;;;8.48;100.00
13732;BME280;6937;56.096;12.664;2023-05-02T06:44:32;101256.56;;;8.55;100.00
13732;BME280;6937;56.096;12.664;2023-05-02T06:46:57;101256.91;;;8.64;100.00
13732;BME280;6937;56.096;12.664;2023-05-02T06:49:22;101263.09;;;8.65;100.00
13732;BME280;6937;56.096;12.664;2023-05-02T06:51:48;101272.91;;;8.64;100.00
13732;BME280;6937;56.096;12.664;2023-05-02T06:54:13;101278.16;;;8.50;100.00
13732;BME280;6937;56.096;12.664;2023-05-02T06:56:40;101289.38;;;8.55;100.00
13732;BME280;6937;56.096;12.664;2023-05-02T06:59:05;101287.50;;;8.57;100.00
13732;BME280;6937;56.096;12.664;2023-05-02T07:01:31;101299.47;;;8.50;100.00
13732;BME280;6937;56.096;12.664;2023-05-02T07:03:56;101305.22;;;8.43;100.00
13732;BME280;6937;56.096;12.664;2023-05-02T07:06:22;101303.31;;;8.45;100.00
13732;BME280;6937;56.096;12.664;2023-05-02T07:08:48;101316.13;;;8.54;100.00
13732;BME280;6937;56.096;12.664;2023-05-02T07:11:13;101308.84;;;8.73;100.00
13732;BME280;6937;56.096;12.664;2023-05-02T07:13:39;101334.03;;;8.83;100.00
13732;BME280;6937;56.096;12.664;2023-05-02T07:16:04;101317.66;;;8.89;100.00
13732;BME280;6937;56.096;12.664;2023-05-02T07:18:30;101330.84;;;8.92;100.00
13732;BME280;6937;56.096;12.664;2023-05-02T07:20:55;101331.69;;;8.93;100.00
13732;BME280;6937;56.096;12.664;2023-05-02T07:23:21;101350.34;;;8.93;100.00
13732;BME280;6937;56.096;12.664;2023-05-02T07:25:46;101350.59;;;9.04;100.00
13732;BME280;6937;56.096;12.664;2023-05-02T07:28:12;101345.63;;;9.13;100.00
13732;BME280;6937;56.096;12.664;2023-05-02T07:30:37;101362.72;;;9.25;100.00
13732;BME280;6937;56.096;12.664;2023-05-02T07:33:03;101366.22;;;9.41;100.00
13732;BME280;6937;56.096;12.664;2023-05-02T07:35:28;101367.19;;;9.40;100.00
13732;BME280;6937;56.096;12.664;2023-05-02T07:37:53;101384.81;;;9.27;100.00
13732;BME280;6937;56.096;12.664;2023-05-02T07:40:19;101375.47;;;9.20;100.00
13732;BME280;6937;56.096;12.664;2023-05-02T07:42:45;101386.56;;;9.28;100.00
13732;BME280;6937;56.096;12.664;2023-05-02T07:45:10;101380.34;;;9.43;100.00
13732;BME280;6937;56.096;12.664;2023-05-02T07:47:36;101396.34;;;9.43;100.00
13732;BME280;6937;56.096;12.664;2023-05-02T07:50:02;101400.22;;;9.38;100.00
13732;BME280;6937;56.096;12.664;2023-05-02T07:52:31;101414.16;;;9.27;100.00
13732;BME280;6937;56.096;12.664;2023-05-02T07:54:56;101417.69;;;9.28;100.00
13732;BME280;6937;56.096;12.664;2023-05-02T07:57:21;101423.53;;;9.34;100.00
13732;BME280;6937;56.096;12.664;2023-05-02T07:59:47;101410.19;;;9.50;100.00
13732;BME280;6937;56.096;12.664;2023-05-02T08:02:13;101433.69;;;9.43;100.00
13732;BME280;6937;56.096;12.664;2023-05-02T08:04:39;101420.38;;;9.43;100.00
13732;BME280;6937;56.096;12.664;2023-05-02T08:07:05;101424.66;;;9.30;100.00
13732;BME280;6937;56.096;12.664;2023-05-02T08:09:30;101435.19;;;9.33;100.00
13732;BME280;6937;56.096;12.664;2023-05-02T08:11:56;101438.94;;;9.45;100.00
13732;BME280;6937;56.096;12.664;2023-05-02T08:14:22;101432.13;;;9.70;100.00
13732;BME280;6937;56.096;12.664;2023-05-02T08:16:47;101445.78;;;9.80;100.00
13732;BME280;6937;56.096;12.664;2023-05-02T08:19:14;101448.44;;;9.80;100.00
13732;BME280;6937;56.096;12.664;2023-05-02T08:21:39;101449.06;;;9.85;100.00
13732;BME280;6937;56.096;12.664;2023-05-02T08:24:05;101440.88;;;9.88;100.00
13732;BME280;6937;56.096;12.664;2023-05-02T08:26:30;101452.63;;;9.70;100.00
13732;BME280;6937;56.096;12.664;2023-05-02T08:28:56;101441.44;;;9.63;100.00
13732;BME280;6937;56.096;12.664;2023-05-02T08:31:21;101447.66;;;9.48;100.00
13732;BME280;6937;56.096;12.664;2023-05-02T08:33:47;101469.41;;;9.56;100.00
13732;BME280;6937;56.096;12.664;2023-05-02T08:36:16;101451.94;;;9.51;100.00
13732;BME280;6937;56.096;12.664;2023-05-02T08:38:43;101467.34;;;9.61;100.00
13732;BME280;6937;56.096;12.664;2023-05-02T08:41:10;101460.38;;;9.59;100.00
13732;BME280;6937;56.096;12.664;2023-05-02T08:43:37;101469.81;;;9.64;100.00
13732;BME280;6937;56.096;12.664;2023-05-02T08:46:04;101471.91;;;9.59;100.00
13732;BME280;6937;56.096;12.664;2023-05-02T08:48:32;101481.53;;;9.62;100.00
13732;BME280;6937;56.096;12.664;2023-05-02T08:50:59;101479.06;;;9.75;100.00
13732;BME280;6937;56.096;12.664;2023-05-02T08:53:25;101491.84;;;9.84;100.00
13732;BME280;6937;56.096;12.664;2023-05-02T08:55:51;101501.34;;;9.89;100.00
13732;BME280;6937;56.096;12.664;2023-05-02T08:58:17;101506.81;;;9.86;100.00
13732;BME280;6937;56.096;12.664;2023-05-02T09:00:43;101503.88;;;9.91;100.00
13732;BME280;6937;56.096;12.664;2023-05-02T09:05:51;101526.53;;;9.99;100.00
13732;BME280;6937;56.096;12.664;2023-05-02T09:08:22;101534.81;;;9.95;100.00
13732;BME280;6937;56.096;12.664;2023-05-02T09:10:48;101553.00;;;10.04;100.00
13732;BME280;6937;56.096;12.664;2023-05-02T09:16:00;101561.69;;;9.92;100.00
13732;BME280;6937;56.096;12.664;2023-05-02T09:18:34;101576.41;;;9.99;100.00
13732;BME280;6937;56.096;12.664;2023-05-02T09:21:03;101598.81;;;10.28;100.00
13732;BME280;6937;56.096;12.664;2023-05-02T09:23:35;101593.84;;;10.22;100.00
13732;BME280;6937;56.096;12.664;2023-05-02T09:26:00;101605.88;;;10.13;100.00
13732;BME280;6937;56.096;12.664;2023-05-02T09:28:43;101616.22;;;10.03;100.00
13732;BME280;6937;56.096;12.664;2023-05-02T09:31:11;101619.50;;;10.08;100.00
13732;BME280;6937;56.096;12.664;2023-05-02T09:33:38;101627.22;;;10.13;100.00
13732;BME280;6937;56.096;12.664;2023-05-02T09:36:04;101632.97;;;10.23;100.00
13732;BME280;6937;56.096;12.664;2023-05-02T09:38:31;101642.59;;;10.25;100.00
13732;BME280;6937;56.096;12.664;2023-05-02T09:40:58;101636.84;;;10.17;100.00
13732;BME280;6937;56.096;12.664;2023-05-02T09:43:24;101663.06;;;10.09;100.00
13732;BME280;6937;56.096;12.664;2023-05-02T09:46:02;101661.66;;;10.19;100.00
13732;BME280;6937;56.096;12.664;2023-05-02T09:48:30;101669.69;;;10.19;100.00
13732;BME280;6937;56.096;12.664;2023-05-02T09:50:56;101678.03;;;10.29;100.00
13732;BME280;6937;56.096;12.664;2023-05-02T09:53:24;101692.56;;;10.39;100.00
13732;BME280;6937;56.096;12.664;2023-05-02T09:56:02;101692.25;;;10.29;100.00
13732;BME280;6937;56.096;12.664;2023-05-02T09:58:28;101710.16;;;10.43;100.00
13732;BME280;6937;56.096;12.664;2023-05-02T10:00:55;101706.03;;;10.53;100.00
13732;BME280;6937;56.096;12.664;2023-05-02T10:03:23;101716.97;;;10.64;100.00
13732;BME280;6937;56.096;12.664;2023-05-02T10:05:49;101720.34;;;10.52;100.00
13732;BME280;6937;56.096;12.664;2023-05-02T10:08:17;101714.13;;;10.51;100.00
13732;BME280;6937;56.096;12.664;2023-05-02T10:11:03;101709.22;;;10.44;100.00
13732;BME280;6937;56.096;12.664;2023-05-02T10:13:31;101713.63;;;10.45;100.00
13732;BME280;6937;56.096;12.664;2023-05-02T10:16:00;101709.72;;;10.66;100.00
13732;BME280;6937;56.096;12.664;2023-05-02T10:21:15;101685.34;;;10.56;100.00
13732;BME280;6937;56.096;12.664;2023-05-02T10:23:42;101692.75;;;10.36;100.00
13732;BME280;6937;56.096;12.664;2023-05-02T10:26:15;101699.41;;;10.44;100.00
13732;BME280;6937;56.096;12.664;2023-05-02T10:28:41;101706.03;;;10.53;100.00
13732;BME280;6937;56.096;12.664;2023-05-02T10:31:12;101714.13;;;10.51;100.00
13732;BME280;6937;56.096;12.664;2023-05-02T10:33:38;101711.47;;;10.36;100.00
13732;BME280;6937;56.096;12.664;2023-05-02T10:36:07;101710.78;;;10.32;100.00
13732;BME280;6937;56.096;12.664;2023-05-02T10:38:33;101736.03;;;10.42;100.00
13732;BME280;6937;56.096;12.664;2023-05-02T10:41:07;101740.34;;;10.45;100.00
13732;BME280;6937;56.096;12.664;2023-05-02T10:43:35;101732.22;;;10.62;100.00
13732;BME280;6937;56.096;12.664;2023-05-02T10:46:02;101733.16;;;10.77;100.00
13732;BME280;6937;56.096;12.664;2023-05-02T10:49:06;101730.00;;;10.54;100.00
13732;BME280;6937;56.096;12.664;2023-05-02T10:51:32;101740.94;;;10.50;100.00
13732;BME280;6937;56.096;12.664;2023-05-02T10:59:31;101746.47;;;10.78;100.00
13732;BME280;6937;56.096;12.664;2023-05-02T11:01:57;101759.03;;;10.76;100.00
13732;BME280;6937;56.096;12.664;2023-05-02T11:04:23;101775.00;;;10.78;100.00
13732;BME280;6937;56.096;12.664;2023-05-02T11:09:30;101771.88;;;11.01;100.00
13732;BME280;6937;56.096;12.664;2023-05-02T11:11:57;101774.59;;;11.15;100.00
13732;BME280;6937;56.096;12.664;2023-05-02T11:19:27;101770.78;;;10.89;100.00
13732;BME280;6937;56.096;12.664;2023-05-02T11:24:48;101770.84;;;10.88;100.00
13732;BME280;6937;56.096;12.664;2023-05-02T11:30:09;101789.75;;;10.85;100.00
13732;BME280;6937;56.096;12.664;2023-05-02T11:35:19;101795.09;;;11.00;100.00
13732;BME280;6937;56.096;12.664;2023-05-02T11:37:54;101801.00;;;11.21;100.00
13732;BME280;6937;56.096;12.664;2023-05-02T11:40:20;101804.25;;;11.26;100.00
13732;BME280;6937;56.096;12.664;2023-05-02T11:42:46;101796.38;;;11.39;100.00
13732;BME280;6937;56.096;12.664;2023-05-02T11:45:11;101815.31;;;11.36;100.00
13732;BME280;6937;56.096;12.664;2023-05-02T11:47:37;101833.63;;;11.28;100.00
13732;BME280;6937;56.096;12.664;2023-05-02T11:50:05;101842.09;;;11.20;100.00
13732;BME280;6937;56.096;12.664;2023-05-02T11:52:39;101829.16;;;11.28;100.00
13732;BME280;6937;56.096;12.664;2023-05-02T11:55:06;101840.56;;;11.16;100.00
13732;BME280;6937;56.096;12.664;2023-05-02T11:57:33;101841.94;;;11.07;100.00
13732;BME280;6937;56.096;12.664;2023-05-02T11:59:59;101854.03;;;11.44;100.00
13732;BME280;6937;56.096;12.664;2023-05-02T12:02:40;101838.63;;;11.34;100.00
13732;BME280;6937;56.096;12.664;2023-05-02T12:05:07;101840.44;;;11.33;100.00
13732;BME280;6937;56.096;12.664;2023-05-02T12:07:37;101831.00;;;11.42;100.00
13732;BME280;6937;56.096;12.664;2023-05-02T12:10:04;101842.41;;;11.30;100.00
13732;BME280;6937;56.096;12.664;2023-05-02T12:12:30;101860.72;;;11.37;100.00
13732;BME280;6937;56.096;12.664;2023-05-02T12:14:55;101841.91;;;11.39;100.00
13732;BME280;6937;56.096;12.664;2023-05-02T12:17:21;101830.38;;;11.52;100.00
13732;BME280;6937;56.096;12.664;2023-05-02T12:19:48;101842.13;;;11.50;100.00
13732;BME280;6937;56.096;12.664;2023-05-02T12:22:14;101845.59;;;11.66;100.00
13732;BME280;6937;56.096;12.664;2023-05-02T12:24:40;101843.47;;;11.73;100.00
13732;BME280;6937;56.096;12.664;2023-05-02T12:27:10;101831.63;;;11.77;100.00
13732;BME280;6937;56.096;12.664;2023-05-02T12:29:40;101838.41;;;11.82;100.00
13732;BME280;6937;56.096;12.664;2023-05-02T12:32:05;101845.28;;;11.72;100.00
13732;BME280;6937;56.096;12.664;2023-05-02T12:34:35;101855.06;;;11.87;100.00
13732;BME280;6937;56.096;12.664;2023-05-02T12:37:02;101847.66;;;12.06;100.00
13732;BME280;6937;56.096;12.664;2023-05-02T12:39:41;101841.63;;;12.03;100.00
13732;BME280;6937;56.096;12.664;2023-05-02T12:42:13;101858.25;;;11.94;100.00
13732;BME280;6937;56.096;12.664;2023-05-02T12:44:41;101850.19;;;11.80;100.00
13732;BME280;6937;56.096;12.664;2023-05-02T12:47:08;101860.66;;;11.98;100.00
13732;BME280;6937;56.096;12.664;2023-05-02T12:52:48;101846.50;;;12.10;100.00
13732;BME280;6937;56.096;12.664;2023-05-02T12:55:21;101850.88;;;12.11;100.00
13732;BME280;6937;56.096;12.664;2023-05-02T12:58:08;101865.28;;;12.10;100.00
13732;BME280;6937;56.096;12.664;2023-05-02T13:00:41;101867.53;;;11.88;100.00
13732;BME280;6937;56.096;12.664;2023-05-02T13:03:07;101864.13;;;11.85;100.00
13732;BME280;6937;56.096;12.664;2023-05-02T13:05:34;101867.47;;;11.74;100.00
13732;BME280;6937;56.096;12.664;2023-05-02T13:07:59;101866.00;;;11.69;100.00
13732;BME280;6937;56.096;12.664;2023-05-02T13:10:25;101866.25;;;11.80;100.00
13732;BME280;6937;56.096;12.664;2023-05-02T13:12:52;101845.72;;;12.08;100.00
13732;BME280;6937;56.096;12.664;2023-05-02T13:15:18;101864.59;;;12.07;100.00
13732;BME280;6937;56.096;12.664;2023-05-02T13:17:44;101861.72;;;11.96;100.00
13732;BME280;6937;56.096;12.664;2023-05-02T13:20:10;101849.81;;;12.00;100.00
13732;BME280;6937;56.096;12.664;2023-05-02T13:22:35;101857.19;;;11.96;100.00
13732;BME280;6937;56.096;12.664;2023-05-02T13:25:05;101849.25;;;11.65;100.00
13732;BME280;6937;56.096;12.664;2023-05-02T13:27:31;101851.50;;;11.73;100.00
13732;BME280;6937;56.096;12.664;2023-05-02T13:29:58;101856.22;;;11.83;100.00
13732;BME280;6937;56.096;12.664;2023-05-02T13:32:24;101849.91;;;11.54;100.00